Time;durP1;ratioP1;P1;durP2;ratioP2;P2;SDS_P1;SDS_P2;PMS_P1;PMS_P2;Temp;Humidity;BMP_temperature;BMP_pressure;BME280_temperature;BME280_humidity;BME280_pressure;Samples;Min_cycle;Max_cycle;Signal;HPM_P1;HPM_P2
2021/05/12 00:00:09;;;;;;;8.02;3.63;;;18.40;69.80;;;;;;5089024;28;20090;-68
2021/05/12 00:02:36;;;;;;;9.82;3.38;;;18.40;69.90;;;;;;5084019;28;20027;-68
2021/05/12 00:05:03;;;;;;;8.68;3.50;;;18.40;70.00;;;;;;5089615;28;20403;-72
2021/05/12 00:07:30;;;;;;;6.80;3.03;;;18.40;69.90;;;;;;5084273;28;20055;-68
2021/05/12 00:09:56;;;;;;;12.00;3.25;;;18.40;69.80;;;;;;5090558;28;20030;-69
2021/05/12 00:12:23;;;;;;;10.35;3.25;;;18.30;69.70;;;;;;5086591;28;20020;-70
2021/05/12 00:14:49;;;;;;;6.18;3.00;;;18.30;69.80;;;;;;5085297;28;20443;-69
2021/05/12 00:17:20;;;;;;;6.30;2.70;;;18.30;69.70;;;;;;5082912;28;20024;-68
2021/05/12 00:19:56;;;;;;;6.03;3.03;;;18.30;69.70;;;;;;5089912;28;20020;-69
2021/05/12 00:22:36;;;;;;;6.88;2.78;;;18.30;69.70;;;;;;5086888;28;20047;-74
2021/05/12 00:25:07;;;;;;;6.90;2.90;;;18.20;69.50;;;;;;5084811;28;20040;-72
2021/05/12 00:27:34;;;;;;;7.60;2.63;;;18.30;69.50;;;;;;5089004;28;20489;-69
2021/05/12 00:30:00;;;;;;;10.57;2.65;;;18.20;69.50;;;;;;5080265;28;20016;-68
2021/05/12 00:32:27;;;;;;;8.65;2.75;;;18.20;69.50;;;;;;5089913;28;20048;-70
2021/05/12 00:34:54;;;;;;;5.20;2.38;;;18.20;69.50;;;;;;5088618;28;20536;-69
2021/05/12 00:37:20;;;;;;;4.85;2.35;;;18.20;69.40;;;;;;5089744;28;20020;-70
2021/05/12 00:39:47;;;;;;;6.18;2.88;;;18.20;69.40;;;;;;5088005;28;20038;-71
2021/05/12 00:42:13;;;;;;;9.07;2.75;;;18.20;69.80;;;;;;5085694;28;20035;-69
2021/05/12 00:44:40;;;;;;;9.50;3.88;;;18.20;69.30;;;;;;5086276;28;20017;-71
2021/05/12 00:47:07;;;;;;;10.20;2.90;;;18.10;69.30;;;;;;5082237;28;20040;-68
2021/05/12 00:49:34;;;;;;;4.82;2.70;;;18.10;69.20;;;;;;5087141;28;20379;-69
2021/05/12 00:52:02;;;;;;;6.50;2.95;;;18.10;69.10;;;;;;5088500;28;20594;-67
2021/05/12 00:54:30;;;;;;;6.80;2.10;;;18.10;69.10;;;;;;5087985;28;20009;-69
2021/05/12 00:56:57;;;;;;;5.05;2.90;;;18.10;69.00;;;;;;5087237;28;20038;-69
2021/05/12 00:59:31;;;;;;;4.32;1.75;;;18.10;68.90;;;;;;5088626;28;20038;-70
2021/05/12 01:01:58;;;;;;;4.43;2.10;;;18.10;68.90;;;;;;5087652;28;20026;-68
2021/05/12 01:04:25;;;;;;;3.35;1.92;;;18.10;68.80;;;;;;5082746;28;20023;-69
2021/05/12 01:06:52;;;;;;;6.25;2.20;;;18.00;68.70;;;;;;5083286;28;20036;-68
2021/05/12 01:09:18;;;;;;;4.25;1.55;;;18.10;68.80;;;;;;5083796;28;20059;-70
2021/05/12 01:11:45;;;;;;;2.85;1.17;;;18.00;68.70;;;;;;5086714;28;20024;-71
2021/05/12 01:14:11;;;;;;;3.47;1.45;;;18.00;68.70;;;;;;5088269;28;20503;-69
2021/05/12 01:16:41;;;;;;;3.25;1.20;;;18.00;69.30;;;;;;5088587;28;20393;-68
2021/05/12 01:19:07;;;;;;;4.07;2.08;;;18.00;68.70;;;;;;5087569;28;20070;-69
2021/05/12 01:21:34;;;;;;;2.42;1.67;;;18.00;68.80;;;;;;5084168;28;20024;-68
2021/05/12 01:24:01;;;;;;;4.57;1.17;;;18.00;68.80;;;;;;5090020;28;20031;-68
2021/05/12 01:26:28;;;;;;;5.13;1.67;;;18.00;68.70;;;;;;5084563;28;20701;-69
2021/05/12 01:28:55;;;;;;;5.13;1.63;;;18.00;68.60;;;;;;5083760;28;20089;-68
2021/05/12 01:31:22;;;;;;;7.10;1.55;;;17.90;68.50;;;;;;5088035;28;20529;-68
2021/05/12 01:33:51;;;;;;;5.10;1.60;;;17.90;68.50;;;;;;5088084;28;20039;-69
2021/05/12 01:36:18;;;;;;;5.30;1.65;;;17.90;68.50;;;;;;5085656;28;20036;-69
2021/05/12 01:38:46;;;;;;;4.13;1.13;;;17.90;68.40;;;;;;5087330;28;20028;-74
2021/05/12 01:41:14;;;;;;;2.17;0.77;;;17.80;68.30;;;;;;5088986;28;20367;-68
2021/05/12 01:43:43;;;;;;;3.83;1.17;;;17.90;68.40;;;;;;5085091;28;20383;-69
2021/05/12 01:46:10;;;;;;;3.47;1.33;;;17.90;68.30;;;;;;5090832;28;20040;-68
2021/05/12 01:48:37;;;;;;;1.13;0.80;;;17.80;68.20;;;;;;5090335;28;20031;-68
2021/05/12 01:51:06;;;;;;;3.38;0.98;;;17.80;68.10;;;;;;5090139;28;20069;-69
2021/05/12 01:53:32;;;;;;;2.33;0.90;;;17.80;68.10;;;;;;5091601;28;20016;-71
2021/05/12 01:55:59;;;;;;;1.95;0.73;;;17.80;68.10;;;;;;5091840;28;20028;-70
2021/05/12 01:58:26;;;;;;;2.63;1.10;;;17.80;68.10;;;;;;5089686;28;20016;-68
2021/05/12 02:00:55;;;;;;;1.15;0.82;;;17.80;68.10;;;;;;5089693;28;20056;-69
2021/05/12 02:03:22;;;;;;;3.13;1.40;;;17.80;68.10;;;;;;5086086;28;20043;-69
2021/05/12 02:05:50;;;;;;;3.78;0.98;;;17.80;68.30;;;;;;5088297;28;20044;-72
2021/05/12 02:08:20;;;;;;;4.07;1.30;;;17.70;68.20;;;;;;5091763;28;20024;-69
2021/05/12 02:10:47;;;;;;;3.58;1.20;;;17.70;68.30;;;;;;5092105;28;20047;-68
2021/05/12 02:13:14;;;;;;;6.80;1.52;;;17.70;68.30;;;;;;5092012;28;20083;-70
2021/05/12 02:15:42;;;;;;;4.10;1.08;;;17.70;68.30;;;;;;5088879;28;20030;-70
2021/05/12 02:18:09;;;;;;;4.30;1.77;;;17.70;68.40;;;;;;5087406;28;20464;-69
2021/05/12 02:20:37;;;;;;;4.22;1.90;;;17.70;68.40;;;;;;5087720;28;20077;-68
2021/05/12 02:23:06;;;;;;;3.53;2.22;;;17.70;68.40;;;;;;5091351;28;20098;-68
2021/05/12 02:25:33;;;;;;;5.15;2.22;;;17.70;68.50;;;;;;5087523;28;20036;-68
2021/05/12 02:28:00;;;;;;;9.82;3.90;;;17.70;68.50;;;;;;5087011;28;20107;-70
2021/05/12 02:30:26;;;;;;;4.78;2.53;;;17.70;68.50;;;;;;5087169;28;20020;-67
2021/05/12 02:32:55;;;;;;;7.93;2.80;;;17.70;68.50;;;;;;5092664;28;20070;-70
2021/05/12 02:35:24;;;;;;;6.15;3.03;;;17.70;68.60;;;;;;5089328;28;20020;-68
2021/05/12 02:37:50;;;;;;;5.90;2.80;;;17.60;68.50;;;;;;5083910;28;20053;-73
2021/05/12 02:40:19;;;;;;;4.97;2.80;;;17.60;69.20;;;;;;5087459;28;20055;-67
2021/05/12 02:42:47;;;;;;;7.18;3.50;;;17.60;68.60;;;;;;5088955;28;20442;-68
2021/05/12 02:45:14;;;;;;;13.80;3.63;;;17.60;68.50;;;;;;5089936;28;20027;-71
2021/05/12 02:47:41;;;;;;;6.30;3.20;;;17.60;68.60;;;;;;5085113;28;20036;-72
2021/05/12 02:50:10;;;;;;;6.28;3.03;;;17.60;68.50;;;;;;5091154;28;20032;-72
2021/05/12 02:52:39;;;;;;;5.45;3.88;;;17.60;68.40;;;;;;5089476;28;20627;-70
2021/05/12 02:55:07;;;;;;;5.20;3.10;;;17.50;68.30;;;;;;5088554;28;20056;-75
2021/05/12 02:57:33;;;;;;;5.20;3.38;;;17.50;68.30;;;;;;5090621;28;20390;-73
2021/05/12 03:00:00;;;;;;;6.80;3.13;;;17.50;68.40;;;;;;5086851;28;20028;-68
2021/05/12 03:02:26;;;;;;;7.00;3.30;;;17.50;68.40;;;;;;5087594;28;20016;-68
2021/05/12 03:04:53;;;;;;;7.53;3.65;;;17.50;68.40;;;;;;5086673;28;20023;-68
2021/05/12 03:07:19;;;;;;;7.57;2.83;;;17.50;68.30;;;;;;5091185;28;20062;-68
2021/05/12 03:09:46;;;;;;;6.25;3.28;;;17.50;68.30;;;;;;5089204;28;20016;-68
2021/05/12 03:12:12;;;;;;;6.38;3.08;;;17.50;68.40;;;;;;5091120;28;20016;-68
2021/05/12 03:14:39;;;;;;;9.68;3.90;;;17.50;68.40;;;;;;5087388;28;20483;-70
2021/05/12 03:17:05;;;;;;;7.68;3.70;;;17.40;68.30;;;;;;5091715;28;20402;-69
2021/05/12 03:19:32;;;;;;;6.93;3.38;;;17.40;68.40;;;;;;5089484;28;20019;-69
2021/05/12 03:21:58;;;;;;;8.63;4.43;;;17.40;68.40;;;;;;5091699;28;20068;-75
2021/05/12 03:24:25;;;;;;;9.07;4.13;;;17.40;68.50;;;;;;5086507;28;20025;-69
2021/05/12 03:26:52;;;;;;;13.23;3.92;;;17.40;68.50;;;;;;5085347;28;20101;-74
2021/05/12 03:29:19;;;;;;;10.70;4.32;;;17.40;68.50;;;;;;5086558;28;20040;-70
2021/05/12 03:31:46;;;;;;;9.23;4.57;;;17.40;68.50;;;;;;5087320;28;20044;-68
2021/05/12 03:34:12;;;;;;;8.60;4.18;;;17.40;68.50;;;;;;5086438;28;20043;-71
2021/05/12 03:36:39;;;;;;;6.68;3.97;;;17.40;68.50;;;;;;5087147;28;20024;-69
2021/05/12 03:39:06;;;;;;;7.50;4.28;;;17.40;68.50;;;;;;5086913;28;20024;-73
2021/05/12 03:41:32;;;;;;;10.50;5.07;;;17.30;68.40;;;;;;5089075;28;20375;-68
2021/05/12 03:43:59;;;;;;;7.88;5.45;;;17.30;68.50;;;;;;5088316;28;20055;-68
2021/05/12 03:46:25;;;;;;;13.13;6.05;;;17.30;68.50;;;;;;5090604;28;20024;-68
2021/05/12 03:48:52;;;;;;;9.57;4.38;;;17.30;68.60;;;;;;5087943;28;20065;-68
2021/05/12 03:51:18;;;;;;;12.15;5.03;;;17.30;68.70;;;;;;5088815;28;20490;-68
2021/05/12 03:53:45;;;;;;;8.25;4.50;;;17.30;68.80;;;;;;5089560;28;20429;-68
2021/05/12 03:56:12;;;;;;;10.95;4.80;;;17.30;68.90;;;;;;5086440;28;20050;-75
2021/05/12 03:58:38;;;;;;;13.40;4.68;;;17.30;69.00;;;;;;5088488;28;20082;-74
2021/05/12 04:01:05;;;;;;;9.05;5.30;;;17.30;69.20;;;;;;5089700;28;20016;-69
2021/05/12 04:03:32;;;;;;;11.13;6.53;;;17.30;69.40;;;;;;5088371;28;20460;-74
2021/05/12 04:05:59;;;;;;;11.43;6.47;;;17.30;69.60;;;;;;5085456;28;20127;-71
2021/05/12 04:08:26;;;;;;;16.38;6.47;;;17.30;69.70;;;;;;5077878;28;20364;-69
2021/05/12 04:10:53;;;;;;;8.73;5.60;;;17.30;69.80;;;;;;5089010;28;20024;-67
2021/05/12 04:13:29;;;;;;;17.42;5.55;;;17.30;70.10;;;;;;5047125;28;20413;-68
2021/05/12 04:15:55;;;;;;;18.98;9.93;;;17.30;70.40;;;;;;5040091;28;20021;-69
2021/05/12 04:18:22;;;;;;;18.80;12.13;;;17.30;70.60;;;;;;5035548;28;20033;-75
2021/05/12 04:20:50;;;;;;;21.70;12.15;;;17.30;71.00;;;;;;5043489;28;20463;-70
2021/05/12 04:23:19;;;;;;;17.73;10.43;;;17.30;71.30;;;;;;5036703;28;20500;-74
2021/05/12 04:25:47;;;;;;;16.17;9.98;;;17.30;71.50;;;;;;5031248;28;20056;-70
2021/05/12 04:28:15;;;;;;;10.55;8.02;;;17.30;71.80;;;;;;5037580;28;20026;-70
2021/05/12 04:30:42;;;;;;;16.52;9.13;;;17.30;72.00;;;;;;5036635;28;20022;-69
2021/05/12 04:33:08;;;;;;;16.17;10.23;;;17.30;72.30;;;;;;5038533;28;20029;-71
2021/05/12 04:35:35;;;;;;;20.13;11.57;;;17.40;72.50;;;;;;5035546;28;20022;-70
2021/05/12 04:38:01;;;;;;;20.20;12.60;;;17.40;72.60;;;;;;5031852;28;20018;-74
2021/05/12 04:40:28;;;;;;;14.63;9.90;;;17.40;72.80;;;;;;5037879;28;20144;-74
2021/05/12 04:42:55;;;;;;;18.17;10.73;;;17.40;73.10;;;;;;5034880;28;20029;-69
2021/05/12 04:45:24;;;;;;;17.85;8.60;;;17.40;73.10;;;;;;5034001;28;21073;-70
2021/05/12 04:47:56;;;;;;;13.30;8.77;;;17.40;73.30;;;;;;5042803;28;20029;-70
2021/05/12 04:50:31;;;;;;;16.75;8.77;;;17.40;73.40;;;;;;5036843;28;20033;-72
2021/05/12 04:52:59;;;;;;;15.43;7.90;;;17.50;73.60;;;;;;5031038;28;20038;-69
2021/05/12 04:55:26;;;;;;;16.40;8.70;;;17.50;73.70;;;;;;5039777;28;20519;-70
2021/05/12 04:57:52;;;;;;;18.33;8.32;;;17.50;73.70;;;;;;5037797;28;20547;-73
2021/05/12 05:00:20;;;;;;;12.57;8.23;;;17.50;73.80;;;;;;5040283;28;20037;-77
2021/05/12 05:02:47;;;;;;;14.70;7.93;;;17.50;73.80;;;;;;5033612;28;20027;-69
2021/05/12 05:05:16;;;;;;;14.18;8.80;;;17.50;73.90;;;;;;5034156;28;20501;-73
2021/05/12 05:07:47;;;;;;;14.13;8.18;;;17.50;73.90;;;;;;5039378;28;20025;-75
2021/05/12 05:10:14;;;;;;;15.93;7.75;;;17.50;73.90;;;;;;5041390;28;20053;-75
2021/05/12 05:12:41;;;;;;;13.80;7.70;;;17.50;74.00;;;;;;5029157;28;20488;-69
2021/05/12 05:15:09;;;;;;;14.55;7.18;;;17.50;74.00;;;;;;5027572;28;20028;-70
2021/05/12 05:17:36;;;;;;;11.70;7.28;;;17.50;74.00;;;;;;5029995;28;20051;-70
2021/05/12 05:20:03;;;;;;;13.48;7.63;;;17.50;74.00;;;;;;5027018;28;20021;-70
2021/05/12 05:22:30;;;;;;;15.38;7.45;;;17.50;74.00;;;;;;5029937;28;20033;-75
2021/05/12 05:24:57;;;;;;;20.70;8.00;;;17.50;74.00;;;;;;5013582;28;20021;-75
2021/05/12 05:27:24;;;;;;;12.88;7.00;;;17.50;74.00;;;;;;5016872;28;20026;-75
2021/05/12 05:29:51;;;;;;;13.38;7.57;;;17.50;74.00;;;;;;5014702;28;20030;-73
2021/05/12 05:32:17;;;;;;;10.20;7.28;;;17.50;73.90;;;;;;5014701;28;20042;-71
2021/05/12 05:34:44;;;;;;;11.63;8.18;;;17.50;74.00;;;;;;5021370;28;20026;-69
2021/05/12 05:37:10;;;;;;;10.25;7.55;;;17.50;74.00;;;;;;5021854;28;20025;-74
2021/05/12 05:39:37;;;;;;;12.23;8.40;;;17.50;74.00;;;;;;5021162;28;20022;-74
2021/05/12 05:42:10;;;;;;;18.00;8.82;;;17.50;74.00;;;;;;5021048;28;20026;-76
2021/05/12 05:44:39;;;;;;;19.77;9.15;;;17.50;74.10;;;;;;5020972;28;20017;-73
2021/05/12 05:47:06;;;;;;;15.98;9.07;;;17.50;74.10;;;;;;5021137;28;20026;-74
2021/05/12 05:49:35;;;;;;;12.48;7.28;;;17.50;74.10;;;;;;5022289;28;20132;-71
2021/05/12 05:52:03;;;;;;;12.10;7.15;;;17.50;74.10;;;;;;5023293;28;20033;-68
2021/05/12 05:54:30;;;;;;;13.10;7.78;;;17.50;74.20;;;;;;5033528;28;20022;-68
2021/05/12 05:57:03;;;;;;;11.55;8.13;;;17.50;74.30;;;;;;5024458;28;20024;-68
2021/05/12 05:59:30;;;;;;;12.75;8.35;;;17.50;74.40;;;;;;5028739;28;20492;-69
2021/05/12 06:01:57;;;;;;;17.80;8.27;;;17.50;74.40;;;;;;5032855;28;20018;-69
2021/05/12 06:04:25;;;;;;;15.73;7.82;;;17.50;74.50;;;;;;5017047;28;20372;-68
2021/05/12 06:06:55;;;;;;;17.25;8.02;;;17.50;74.60;;;;;;5024638;28;20021;-68
2021/05/12 06:09:22;;;;;;;16.17;8.18;;;17.50;74.70;;;;;;5018151;28;20030;-68
2021/05/12 06:11:49;;;;;;;12.00;8.35;;;17.60;74.80;;;;;;5018278;28;20049;-69
2021/05/12 06:14:17;;;;;;;13.23;8.85;;;17.50;74.80;;;;;;5020314;28;20112;-68
2021/05/12 06:16:43;;;;;;;16.75;9.60;;;17.50;74.80;;;;;;5023221;28;20025;-68
2021/05/12 06:19:10;;;;;;;14.25;8.27;;;17.50;74.80;;;;;;5020608;28;20045;-68
2021/05/12 06:21:36;;;;;;;14.65;7.82;;;17.50;74.90;;;;;;5024794;28;20014;-68
2021/05/12 06:24:03;;;;;;;14.32;8.15;;;17.60;75.00;;;;;;5025495;28;20945;-68
2021/05/12 06:26:30;;;;;;;14.50;7.60;;;17.60;74.90;;;;;;5020322;28;20385;-68
2021/05/12 06:28:56;;;;;;;18.27;8.32;;;17.50;74.80;;;;;;5013626;28;20021;-68
2021/05/12 06:31:23;;;;;;;12.98;9.30;;;17.50;74.90;;;;;;5023996;28;20052;-69
2021/05/12 06:33:49;;;;;;;15.73;9.02;;;17.50;75.70;;;;;;5023404;28;20052;-68
2021/05/12 06:36:16;;;;;;;12.73;7.72;;;17.50;75.10;;;;;;5022676;28;20034;-69
2021/05/12 06:38:43;;;;;;;17.88;8.60;;;17.50;75.10;;;;;;5021569;28;20088;-68
2021/05/12 06:41:10;;;;;;;18.15;8.73;;;17.50;75.10;;;;;;5020272;28;20026;-69
2021/05/12 06:43:36;;;;;;;18.85;8.18;;;17.50;75.30;;;;;;5020665;28;20547;-68
2021/05/12 06:46:03;;;;;;;18.65;9.27;;;17.50;75.40;;;;;;5015344;28;20380;-68
2021/05/12 06:48:29;;;;;;;21.88;7.85;;;17.50;75.40;;;;;;5021877;28;20017;-69
2021/05/12 06:50:56;;;;;;;14.88;8.55;;;17.50;75.50;;;;;;5021186;28;20412;-69
2021/05/12 06:53:26;;;;;;;11.70;7.43;;;17.50;75.60;;;;;;5021108;28;20041;-68
2021/05/12 06:55:54;;;;;;;15.65;7.63;;;17.50;75.60;;;;;;5014199;28;20027;-69
2021/05/12 06:58:21;;;;;;;18.35;7.15;;;17.50;75.60;;;;;;5016560;28;20021;-70
2021/05/12 07:00:50;;;;;;;15.98;7.22;;;17.50;75.60;;;;;;5022977;28;20605;-69
2021/05/12 07:03:17;;;;;;;18.65;8.15;;;17.50;75.60;;;;;;5019565;28;20352;-69
2021/05/12 07:05:44;;;;;;;14.50;7.45;;;17.50;75.50;;;;;;5022777;28;21849;-69
2021/05/12 07:08:10;;;;;;;18.20;8.77;;;17.60;75.60;;;;;;5014102;28;20045;-68
2021/05/12 07:10:37;;;;;;;17.85;7.32;;;17.50;75.50;;;;;;5025687;28;20104;-68
2021/05/12 07:13:04;;;;;;;15.38;8.23;;;17.60;75.60;;;;;;5016889;28;20046;-68
2021/05/12 07:15:31;;;;;;;14.52;7.25;;;17.60;75.60;;;;;;5019718;28;20010;-69
2021/05/12 07:17:58;;;;;;;13.73;7.32;;;17.60;75.70;;;;;;5023134;28;20108;-69
2021/05/12 07:20:25;;;;;;;17.30;7.22;;;17.60;75.70;;;;;;5021827;28;20113;-70
2021/05/12 07:22:51;;;;;;;15.90;7.18;;;17.60;75.70;;;;;;5020950;28;20017;-71
2021/05/12 07:25:18;;;;;;;14.27;6.80;;;17.60;75.70;;;;;;5015319;28;20022;-76
2021/05/12 07:27:46;;;;;;;19.52;7.22;;;17.70;75.80;;;;;;5023064;28;20029;-71
2021/05/12 07:30:15;;;;;;;14.75;7.45;;;17.70;75.80;;;;;;5017855;28;20627;-69
2021/05/12 07:32:41;;;;;;;14.32;7.15;;;17.70;75.90;;;;;;5022205;28;20504;-72
2021/05/12 07:35:08;;;;;;;11.85;6.72;;;17.70;75.90;;;;;;5020043;28;20048;-69
2021/05/12 07:37:34;;;;;;;13.30;7.28;;;17.80;76.00;;;;;;5021971;28;20566;-69
2021/05/12 07:40:01;;;;;;;14.48;7.18;;;17.80;76.00;;;;;;5022130;28;20025;-68
2021/05/12 07:42:27;;;;;;;14.52;7.05;;;17.80;76.00;;;;;;5052159;28;20392;-68
2021/05/12 07:44:54;;;;;;;13.82;7.97;;;17.90;76.00;;;;;;5020401;28;20025;-68
2021/05/12 07:47:20;;;;;;;12.60;6.80;;;17.90;76.00;;;;;;5012140;28;20378;-68
2021/05/12 07:49:47;;;;;;;16.05;8.45;;;17.90;75.80;;;;;;5020992;28;20073;-69
2021/05/12 07:52:14;;;;;;;12.18;7.50;;;18.00;75.80;;;;;;5011909;28;20516;-68
2021/05/12 07:54:42;;;;;;;18.52;9.73;;;18.00;75.80;;;;;;5015217;28;20082;-69
2021/05/12 07:57:09;;;;;;;13.60;10.30;;;18.10;75.70;;;;;;5018494;28;20017;-70
2021/05/12 07:59:36;;;;;;;13.80;8.32;;;18.10;75.70;;;;;;5017591;28;20025;-69
2021/05/12 08:02:04;;;;;;;9.70;8.52;;;18.10;75.70;;;;;;5019317;28;20405;-68
2021/05/12 08:04:32;;;;;;;13.32;9.13;;;18.10;75.70;;;;;;5022673;28;20025;-69
2021/05/12 08:06:59;;;;;;;17.55;8.32;;;18.20;75.70;;;;;;5022982;28;20509;-68
2021/05/12 08:09:26;;;;;;;15.13;8.45;;;18.20;75.60;;;;;;5017486;28;20037;-68
2021/05/12 08:11:53;;;;;;;17.13;8.18;;;18.30;75.70;;;;;;5018250;28;20046;-68
2021/05/12 08:14:19;;;;;;;18.48;7.95;;;18.30;75.60;;;;;;5014416;28;20036;-70
2021/05/12 08:16:46;;;;;;;11.10;7.40;;;18.40;75.60;;;;;;5021024;28;20013;-68
2021/05/12 08:19:14;;;;;;;13.25;7.65;;;18.40;75.50;;;;;;5016431;28;20430;-69
2021/05/12 08:21:41;;;;;;;9.77;6.53;;;18.40;75.50;;;;;;5015595;28;20156;-69
2021/05/12 08:24:07;;;;;;;14.15;7.05;;;18.50;75.50;;;;;;5031923;28;20041;-69
2021/05/12 08:26:34;;;;;;;13.20;5.57;;;18.50;75.50;;;;;;5019773;28;20539;-69
2021/05/12 08:29:04;;;;;;;11.48;6.50;;;18.50;75.50;;;;;;5021750;28;20030;-69
2021/05/12 08:31:31;;;;;;;7.32;4.70;;;18.50;75.50;;;;;;5018618;28;21117;-72
2021/05/12 08:33:59;;;;;;;10.07;4.88;;;18.60;75.60;;;;;;5014714;28;20433;-69
2021/05/12 08:36:26;;;;;;;9.95;5.05;;;18.70;75.70;;;;;;5015239;28;20020;-69
2021/05/12 08:38:52;;;;;;;10.02;5.22;;;18.70;75.70;;;;;;5024636;28;20021;-72
2021/05/12 08:41:20;;;;;;;6.03;3.58;;;18.70;75.70;;;;;;5012383;28;20080;-70
2021/05/12 08:43:47;;;;;;;6.38;3.65;;;18.80;75.70;;;;;;5023689;28;20018;-70
2021/05/12 08:46:15;;;;;;;8.73;3.35;;;18.80;75.70;;;;;;5012124;28;20109;-69
2021/05/12 08:48:42;;;;;;;7.35;3.75;;;18.80;75.60;;;;;;5018369;28;20523;-70
2021/05/12 08:51:10;;;;;;;8.63;3.00;;;18.90;75.40;;;;;;5021600;28;20026;-69
2021/05/12 08:53:37;;;;;;;4.60;2.70;;;18.90;75.20;;;;;;5025273;28;20093;-68
2021/05/12 08:56:05;;;;;;;11.98;2.90;;;19.00;74.90;;;;;;5019406;28;20440;-69
2021/05/12 08:58:32;;;;;;;4.10;2.50;;;19.00;74.60;;;;;;5019871;28;20045;-68
2021/05/12 09:01:00;;;;;;;5.15;2.45;;;19.00;74.40;;;;;;5021393;28;20022;-68
2021/05/12 09:03:27;;;;;;;4.47;2.65;;;19.10;74.20;;;;;;5020601;28;20040;-69
2021/05/12 09:05:56;;;;;;;7.13;3.10;;;19.10;74.00;;;;;;5016739;28;20022;-68
2021/05/12 09:08:26;;;;;;;7.25;3.40;;;19.10;73.70;;;;;;5029033;28;20026;-68
2021/05/12 09:10:54;;;;;;;10.05;2.78;;;19.20;73.60;;;;;;5023027;28;20120;-69
2021/05/12 09:13:31;;;;;;;7.75;3.10;;;19.20;73.30;;;;;;5019963;28;20088;-68
2021/05/12 09:16:20;;;;;;;8.57;3.05;;;19.30;73.10;;;;;;5017868;28;20057;-70
2021/05/12 09:18:49;;;;;;;2.75;2.00;;;19.40;73.00;;;;;;5019645;28;20480;-73
2021/05/12 09:21:16;;;;;;;3.83;2.33;;;19.40;72.60;;;;;;5022885;28;20034;-68
2021/05/12 09:23:44;;;;;;;2.30;1.80;;;19.50;72.10;;;;;;5021894;28;20032;-70
2021/05/12 09:26:13;;;;;;;2.72;1.58;;;19.50;71.80;;;;;;5016678;28;20104;-68
2021/05/12 09:28:40;;;;;;;3.63;1.67;;;19.50;71.50;;;;;;5022312;28;20476;-74
2021/05/12 09:31:08;;;;;;;3.95;1.90;;;19.60;71.30;;;;;;5018713;28;20473;-69
2021/05/12 09:33:39;;;;;;;6.43;2.63;;;19.70;71.20;;;;;;5017099;28;20496;-68
2021/05/12 09:36:08;;;;;;;4.65;2.70;;;19.70;71.00;;;;;;5020259;28;20022;-69
2021/05/12 09:38:37;;;;;;;2.47;1.48;;;19.80;71.00;;;;;;5025350;28;20033;-68
2021/05/12 09:41:10;;;;;;;4.95;2.17;;;19.80;70.70;;;;;;5026833;28;20014;-69
2021/05/12 09:43:45;;;;;;;5.35;2.03;;;19.90;70.40;;;;;;5023770;28;20109;-71
2021/05/12 09:46:26;;;;;;;6.10;2.28;;;19.90;70.30;;;;;;5020794;28;20030;-70
2021/05/12 09:49:01;;;;;;;4.80;2.35;;;20.00;70.40;;;;;;5024028;28;20037;-69
2021/05/12 09:51:30;;;;;;;5.00;1.83;;;20.00;70.40;;;;;;5022781;28;20037;-68
2021/05/12 09:54:02;;;;;;;5.35;2.40;;;20.00;70.40;;;;;;5024600;28;20021;-72
2021/05/12 09:56:42;;;;;;;2.03;1.65;;;20.10;70.40;;;;;;5024281;28;20072;-69
2021/05/12 09:59:12;;;;;;;4.70;1.58;;;20.10;70.00;;;;;;5021898;28;20026;-72
2021/05/12 10:01:42;;;;;;;8.25;2.45;;;20.20;69.60;;;;;;5024033;28;20024;-70
2021/05/12 10:04:39;;;;;;;4.13;1.73;;;20.20;69.60;;;;;;5016090;28;20486;-68
2021/05/12 10:07:24;;;;;;;4.95;1.80;;;20.30;69.70;;;;;;5012721;28;20120;-68
2021/05/12 10:09:58;;;;;;;4.80;2.13;;;20.30;69.80;;;;;;5018803;28;20113;-70
2021/05/12 10:12:26;;;;;;;4.43;1.65;;;20.40;69.70;;;;;;5024816;28;20076;-68
2021/05/12 10:14:56;;;;;;;7.97;2.22;;;20.50;69.70;;;;;;5024775;28;20053;-68
2021/05/12 10:17:24;;;;;;;7.40;2.13;;;20.50;69.60;;;;;;5022962;28;20087;-69
2021/05/12 10:19:51;;;;;;;5.28;2.22;;;20.50;69.30;;;;;;5018485;28;20026;-69
2021/05/12 10:22:19;;;;;;;8.25;2.75;;;20.50;69.10;;;;;;5027052;28;20029;-68
2021/05/12 10:24:47;;;;;;;9.98;2.97;;;20.60;69.00;;;;;;5027697;28;20017;-68
2021/05/12 10:27:27;;;;;;;7.32;2.25;;;20.60;69.00;;;;;;5018091;28;20028;-69
2021/05/12 10:29:56;;;;;;;6.22;2.42;;;20.60;69.00;;;;;;5018415;28;20100;-69
2021/05/12 10:32:31;;;;;;;8.20;3.08;;;20.70;69.00;;;;;;5022664;28;20064;-68
2021/05/12 10:35:11;;;;;;;6.15;2.40;;;20.70;68.90;;;;;;5024469;28;20034;-68
2021/05/12 10:37:46;;;;;;;10.60;2.88;;;20.80;68.80;;;;;;5016786;28;20481;-70
2021/05/12 10:40:23;;;;;;;6.68;2.55;;;20.80;68.60;;;;;;5020599;28;20028;-69
2021/05/12 10:48:42;;;;;;;6.53;2.50;;;20.90;68.10;;;;;;5018672;28;20124;-68
2021/05/12 10:51:33;;;;;;;5.80;3.13;;;20.90;67.90;;;;;;5020648;28;20078;-69
2021/05/12 10:54:03;;;;;;;9.02;2.20;;;21.00;67.90;;;;;;5016074;28;20068;-68
2021/05/12 10:56:39;;;;;;;4.90;2.00;;;21.00;67.90;;;;;;5021849;28;20064;-68
2021/05/12 10:59:06;;;;;;;8.55;2.03;;;21.10;67.70;;;;;;5019715;28;20083;-68
2021/05/12 11:01:54;;;;;;;3.55;1.80;;;21.20;67.60;;;;;;5017645;28;20040;-68
2021/05/12 11:04:25;;;;;;;5.15;2.53;;;21.20;67.10;;;;;;5018774;28;20057;-69
2021/05/12 11:06:52;;;;;;;7.75;2.25;;;21.20;66.90;;;;;;5018671;28;20036;-68
2021/05/12 11:09:36;;;;;;;5.55;1.83;;;21.30;66.80;;;;;;5021989;28;20507;-68
2021/05/12 11:12:10;;;;;;;3.30;1.42;;;21.30;66.70;;;;;;5019963;28;20034;-69
2021/05/12 11:14:38;;;;;;;6.38;2.50;;;21.30;66.50;;;;;;5054997;28;20029;-68
2021/05/12 11:17:10;;;;;;;3.15;1.63;;;21.30;66.50;;;;;;5021876;28;20084;-68
2021/05/12 11:19:44;;;;;;;6.13;1.45;;;21.30;66.30;;;;;;5015014;28;20014;-68
2021/05/12 11:32:36;;;;;;;5.70;1.60;;;21.50;66.30;;;;;;5015493;28;20046;-68
2021/05/12 11:35:11;;;;;;;6.72;1.85;;;21.60;65.60;;;;;;5015932;28;20354;-68
2021/05/12 11:37:44;;;;;;;5.43;2.22;;;21.60;65.70;;;;;;5018981;28;20109;-68
2021/05/12 11:40:11;;;;;;;6.05;2.67;;;21.60;65.50;;;;;;5023065;28;20010;-68
2021/05/12 11:42:37;;;;;;;3.72;1.80;;;21.70;65.50;;;;;;5050285;28;20087;-68
2021/05/12 11:45:08;;;;;;;7.22;2.00;;;21.70;65.30;;;;;;5021309;28;20018;-68
2021/05/12 11:47:43;;;;;;;8.85;2.42;;;21.70;65.10;;;;;;5019949;28;20037;-68
2021/05/12 11:50:21;;;;;;;7.57;1.92;;;21.80;65.10;;;;;;5013056;28;20062;-68
2021/05/12 11:52:47;;;;;;;6.55;2.65;;;21.80;64.80;;;;;;5022798;28;20045;-70
2021/05/12 11:55:14;;;;;;;6.75;2.53;;;21.80;64.50;;;;;;5016502;28;20041;-68
2021/05/12 11:57:45;;;;;;;7.72;1.90;;;21.90;64.40;;;;;;5016584;28;20514;-69
2021/05/12 12:00:18;;;;;;;4.18;1.13;;;22.00;63.80;;;;;;5023378;28;20041;-69
2021/05/12 12:02:56;;;;;;;3.13;1.63;;;22.00;63.20;;;;;;5018869;28;20048;-68
2021/05/12 12:05:22;;;;;;;5.53;2.03;;;22.10;63.00;;;;;;5020437;28;20445;-69
2021/05/12 12:07:49;;;;;;;6.88;1.05;;;22.10;62.60;;;;;;5018879;28;20076;-69
2021/05/12 12:10:17;;;;;;;6.53;1.85;;;22.20;61.90;;;;;;5019284;28;20029;-69
2021/05/12 12:12:59;;;;;;;1.52;1.00;;;22.20;61.60;;;;;;5018855;28;20073;-69
2021/05/12 12:15:25;;;;;;;3.10;1.05;;;22.30;61.40;;;;;;5049862;28;20022;-68
2021/05/12 12:17:52;;;;;;;1.70;1.10;;;22.30;61.20;;;;;;5011721;28;20038;-68
2021/05/12 12:20:19;;;;;;;3.33;1.60;;;22.30;61.10;;;;;;5018459;28;20018;-68
2021/05/12 12:22:50;;;;;;;2.45;1.10;;;22.40;61.00;;;;;;5024458;28;20038;-69
2021/05/12 12:25:18;;;;;;;2.88;1.17;;;22.40;60.90;;;;;;5020775;28;20066;-68
2021/05/12 12:27:45;;;;;;;1.10;0.70;;;22.40;60.60;;;;;;5020814;28;20477;-68
2021/05/12 12:30:17;;;;;;;5.63;1.00;;;22.50;60.80;;;;;;5021898;28;20101;-68
2021/05/12 12:32:44;;;;;;;2.13;1.10;;;22.50;60.80;;;;;;5017726;28;20036;-68
2021/05/12 12:35:10;;;;;;;2.17;0.88;;;22.50;60.70;;;;;;5025564;28;20480;-68
2021/05/12 12:37:40;;;;;;;3.22;0.93;;;22.60;60.60;;;;;;5025651;28;20022;-69
2021/05/12 12:40:09;;;;;;;2.15;0.85;;;22.60;60.60;;;;;;5021363;28;20053;-68
2021/05/12 12:42:43;;;;;;;2.47;1.38;;;22.60;60.60;;;;;;5022402;28;20105;-69
2021/05/12 12:45:27;;;;;;;3.60;1.10;;;22.60;60.60;;;;;;5022816;28;20025;-69
2021/05/12 12:48:00;;;;;;;3.28;1.17;;;22.60;60.60;;;;;;5018441;28;20034;-68
2021/05/12 12:50:28;;;;;;;3.03;1.27;;;22.60;60.60;;;;;;5025378;28;20064;-68
2021/05/12 12:52:56;;;;;;;5.30;1.17;;;22.60;60.70;;;;;;5027656;28;20484;-69
2021/05/12 12:55:41;;;;;;;5.53;1.30;;;22.60;60.70;;;;;;5015266;28;20480;-68
2021/05/12 12:58:08;;;;;;;3.83;1.30;;;22.70;60.70;;;;;;5021929;28;20385;-68
2021/05/12 13:00:44;;;;;;;5.75;1.33;;;22.70;60.70;;;;;;5020259;28;20536;-68
2021/05/12 13:03:14;;;;;;;4.10;1.98;;;22.70;60.70;;;;;;5018875;28;20029;-68
2021/05/12 13:05:48;;;;;;;4.35;1.52;;;22.70;60.70;;;;;;5021269;28;20017;-69